Time;durP1;ratioP1;P1;durP2;ratioP2;P2;SDS_P1;SDS_P2;PMS_P1;PMS_P2;Temp;Humidity;BMP_temperature;BMP_pressure;BME280_temperature;BME280_humidity;BME280_pressure;Samples;Min_cycle;Max_cycle;Signal;HPM_P1;HPM_P2
2023/03/25 00:01:12;;;;;;;2.60;1.40;;;15.60;54.60;;;;;;5088208;28;45368;-63
2023/03/25 00:03:40;;;;;;;2.90;1.42;;;15.60;54.60;;;;;;5088365;28;45490;-63
2023/03/25 00:06:07;;;;;;;3.28;1.35;;;15.60;54.60;;;;;;5087960;28;46931;-63
2023/03/25 00:08:35;;;;;;;3.20;1.63;;;15.60;54.60;;;;;;5088039;28;45277;-63
2023/03/25 00:11:03;;;;;;;2.70;1.33;;;15.60;54.60;;;;;;5088206;28;45209;-63
2023/03/25 00:13:31;;;;;;;4.25;1.45;;;15.60;54.60;;;;;;5088079;28;45465;-64
2023/03/25 00:15:58;;;;;;;1.83;1.35;;;15.60;55.10;;;;;;5087415;28;46943;-63
2023/03/25 00:18:25;;;;;;;2.17;1.15;;;15.60;54.60;;;;;;5087807;28;45204;-63
2023/03/25 00:20:52;;;;;;;1.73;1.25;;;15.60;54.60;;;;;;5085433;28;45303;-63
2023/03/25 00:23:20;;;;;;;2.65;1.20;;;15.60;54.50;;;;;;5088302;28;45345;-64
2023/03/25 00:25:47;;;;;;;1.90;1.30;;;15.60;54.50;;;;;;5087356;28;46381;-63
2023/03/25 00:28:13;;;;;;;2.47;1.33;;;15.60;55.10;;;;;;5087726;28;45332;-63
2023/03/25 00:30:42;;;;;;;1.85;1.13;;;15.60;54.50;;;;;;5087931;28;45388;-61
2023/03/25 00:33:09;;;;;;;1.58;1.15;;;15.60;54.50;;;;;;5087911;28;45409;-64
2023/03/25 00:35:37;;;;;;;1.85;1.20;;;15.60;54.50;;;;;;5087609;28;46419;-61
2023/03/25 00:38:05;;;;;;;3.33;1.20;;;15.50;54.50;;;;;;5087478;28;45329;-63
2023/03/25 00:40:33;;;;;;;1.60;1.00;;;15.50;54.50;;;;;;5087653;28;45206;-64
2023/03/25 00:43:00;;;;;;;3.40;1.20;;;15.50;54.50;;;;;;5087658;28;45321;-63
2023/03/25 00:45:27;;;;;;;1.20;1.10;;;15.50;54.50;;;;;;5087341;28;46414;-64
2023/03/25 00:47:55;;;;;;;1.58;1.00;;;15.50;54.50;;;;;;5087389;28;45340;-63
2023/03/25 00:50:23;;;;;;;1.70;1.13;;;15.50;55.10;;;;;;5087463;28;45326;-64
2023/03/25 00:52:50;;;;;;;2.45;1.45;;;15.50;54.50;;;;;;5087559;28;45401;-63
2023/03/25 00:55:17;;;;;;;1.25;0.98;;;15.50;54.50;;;;;;5087055;28;45462;-63
2023/03/25 00:57:44;;;;;;;1.85;1.23;;;15.50;54.60;;;;;;5087329;28;45449;-63
2023/03/25 01:00:12;;;;;;;0.93;0.80;;;15.50;54.60;;;;;;5087378;28;45197;-63
2023/03/25 01:02:39;;;;;;;1.20;0.88;;;15.50;54.50;;;;;;5087640;28;45439;-63
2023/03/25 01:05:09;;;;;;;3.50;1.20;;;15.50;54.50;;;;;;5086993;28;45305;-63
2023/03/25 01:07:36;;;;;;;1.45;0.90;;;15.50;54.50;;;;;;5087284;28;45322;-61
2023/03/25 01:10:03;;;;;;;2.78;1.10;;;15.50;54.50;;;;;;5087082;28;45271;-63
2023/03/25 01:12:30;;;;;;;2.70;1.15;;;15.50;54.60;;;;;;5087411;28;45440;-63
2023/03/25 01:14:57;;;;;;;0.90;0.80;;;15.40;54.50;;;;;;5086820;28;45472;-65
2023/03/25 01:17:24;;;;;;;1.08;0.98;;;15.40;54.60;;;;;;5087128;28;45378;-63
2023/03/25 01:19:50;;;;;;;1.80;1.20;;;15.40;54.60;;;;;;5087164;28;45322;-63
2023/03/25 01:22:19;;;;;;;1.40;0.60;;;15.40;54.60;;;;;;5087345;28;45488;-63
2023/03/25 01:24:46;;;;;;;2.08;1.00;;;15.40;54.70;;;;;;5086403;28;46674;-63
2023/03/25 01:27:12;;;;;;;1.92;1.20;;;15.40;54.60;;;;;;5085596;28;45332;-64
2023/03/25 01:29:39;;;;;;;2.67;1.00;;;15.40;54.60;;;;;;5086914;28;45411;-63
2023/03/25 01:32:07;;;;;;;2.58;0.88;;;15.40;54.70;;;;;;5087107;28;45346;-63
2023/03/25 01:34:37;;;;;;;1.05;0.82;;;15.40;54.70;;;;;;5086399;28;45537;-63
2023/03/25 01:37:05;;;;;;;1.38;0.82;;;15.40;54.80;;;;;;5086747;28;45342;-64
2023/03/25 01:39:33;;;;;;;1.17;0.85;;;15.30;54.60;;;;;;5086782;28;45302;-61
2023/03/25 01:42:00;;;;;;;1.20;0.93;;;15.30;55.20;;;;;;5086853;28;45213;-61
2023/03/25 01:45:05;;;;;;;0.80;0.80;;;15.30;54.60;;;;;;5086462;28;45258;-61
2023/03/25 01:47:32;;;;;;;2.75;0.98;;;15.30;54.60;;;;;;5086440;28;45415;-62
2023/03/25 01:49:59;;;;;;;1.48;1.00;;;15.30;54.60;;;;;;5086704;28;45401;-61
2023/03/25 01:52:26;;;;;;;1.42;0.80;;;15.30;54.60;;;;;;5086324;28;45499;-62
2023/03/25 01:54:54;;;;;;;1.10;1.00;;;15.30;54.60;;;;;;5086098;28;45452;-63
2023/03/25 01:57:22;;;;;;;1.00;0.90;;;15.30;54.70;;;;;;5086339;28;45372;-63
2023/03/25 01:59:49;;;;;;;1.02;0.93;;;15.30;54.70;;;;;;5086722;28;45396;-63
2023/03/25 02:02:17;;;;;;;1.60;0.80;;;15.30;54.60;;;;;;5086573;28;45412;-62
2023/03/25 02:04:50;;;;;;;0.82;0.80;;;15.30;54.70;;;;;;5086161;28;45429;-63
2023/03/25 02:07:18;;;;;;;1.40;0.98;;;15.30;54.70;;;;;;5086096;28;45316;-63
2023/03/25 02:09:45;;;;;;;2.05;0.80;;;15.20;55.30;;;;;;5086326;28;45210;-63
2023/03/25 02:12:13;;;;;;;0.80;0.80;;;15.20;54.70;;;;;;5086341;28;45481;-64
2023/03/25 02:14:40;;;;;;;3.85;0.82;;;15.20;54.80;;;;;;5086118;28;45280;-61
2023/03/25 02:17:10;;;;;;;1.63;0.80;;;15.20;54.70;;;;;;5085917;28;45313;-61
2023/03/25 02:20:07;;;;;;;1.92;0.90;;;15.20;54.60;;;;;;5086166;28;45304;-61
2023/03/25 02:22:52;;;;;;;1.67;0.70;;;15.20;54.60;;;;;;5086283;28;45359;-63
2023/03/25 02:25:44;;;;;;;0.73;0.63;;;15.20;54.70;;;;;;5085571;28;46384;-61
2023/03/25 02:28:14;;;;;;;1.63;1.08;;;15.20;54.70;;;;;;5085741;28;45304;-64
2023/03/25 02:31:04;;;;;;;2.50;0.93;;;15.20;54.70;;;;;;5085893;28;45342;-64
2023/03/25 02:33:53;;;;;;;2.17;0.77;;;15.20;54.70;;;;;;5054349;28;45501;-61
2023/03/25 02:36:58;;;;;;;1.70;0.63;;;15.20;54.70;;;;;;5085511;28;46438;-64
2023/03/25 02:39:31;;;;;;;1.02;0.60;;;15.20;54.70;;;;;;5023291;28;45711;-61
2023/03/25 02:42:00;;;;;;;1.02;0.80;;;15.10;55.30;;;;;;5076683;28;45355;-63
2023/03/25 02:44:30;;;;;;;1.63;0.90;;;15.10;54.60;;;;;;5086125;28;45456;-61
2023/03/25 02:46:58;;;;;;;0.80;0.70;;;15.10;54.70;;;;;;5085592;28;45432;-62
2023/03/25 02:49:27;;;;;;;3.28;0.70;;;15.10;54.70;;;;;;5085680;28;45405;-61
2023/03/25 02:51:56;;;;;;;1.35;0.88;;;15.10;54.70;;;;;;5085846;28;45235;-62
2023/03/25 02:54:22;;;;;;;1.27;0.98;;;15.10;54.70;;;;;;5085984;28;45301;-62
2023/03/25 02:56:51;;;;;;;2.88;0.75;;;15.10;54.70;;;;;;5085069;28;47335;-61
2023/03/25 02:59:18;;;;;;;1.30;0.82;;;15.10;54.70;;;;;;5085431;28;45370;-63
2023/03/25 03:01:49;;;;;;;1.15;0.77;;;15.10;54.60;;;;;;5085469;28;45294;-63
2023/03/25 03:04:16;;;;;;;0.95;0.70;;;15.10;54.60;;;;;;5085535;28;45581;-63
2023/03/25 03:06:42;;;;;;;1.00;0.70;;;15.10;54.60;;;;;;5085264;28;45479;-63
2023/03/25 03:09:26;;;;;;;1.25;0.60;;;15.10;54.60;;;;;;5085275;28;45249;-63
2023/03/25 03:11:59;;;;;;;1.08;0.65;;;15.00;54.60;;;;;;5085569;28;45316;-63
2023/03/25 03:14:34;;;;;;;1.08;0.68;;;15.00;54.60;;;;;;5085778;28;45363;-63
2023/03/25 03:17:06;;;;;;;0.95;0.70;;;15.00;54.70;;;;;;5084798;28;45367;-63
2023/03/25 03:19:37;;;;;;;0.98;0.77;;;15.00;54.60;;;;;;5084975;28;45309;-63
2023/03/25 03:22:14;;;;;;;0.82;0.60;;;15.00;54.60;;;;;;5085510;28;45238;-63
2023/03/25 03:24:41;;;;;;;1.50;0.50;;;15.00;54.60;;;;;;5085219;28;45297;-63
2023/03/25 03:27:10;;;;;;;2.63;0.90;;;15.00;54.60;;;;;;5084888;28;47308;-64
2023/03/25 03:29:38;;;;;;;1.27;0.40;;;15.00;54.50;;;;;;5085042;28;45297;-63
2023/03/25 03:32:07;;;;;;;1.55;0.93;;;14.90;54.60;;;;;;5085484;28;45312;-63
2023/03/25 03:34:39;;;;;;;1.17;0.60;;;14.90;54.50;;;;;;5085292;28;45404;-64
2023/03/25 03:37:06;;;;;;;1.05;0.63;;;14.90;54.60;;;;;;5084743;28;45718;-64
2023/03/25 03:39:34;;;;;;;1.55;0.60;;;14.90;54.60;;;;;;5084915;28;45284;-63
2023/03/25 03:42:04;;;;;;;2.30;0.80;;;14.90;54.50;;;;;;5085146;28;45328;-64
2023/03/25 03:44:34;;;;;;;0.60;0.60;;;14.90;54.50;;;;;;5085249;28;45407;-63
2023/03/25 03:47:02;;;;;;;1.88;0.60;;;14.90;54.50;;;;;;5084649;28;46639;-63
2023/03/25 03:49:30;;;;;;;1.10;0.60;;;14.90;54.60;;;;;;5086153;27;45233;-64
2023/03/25 03:51:58;;;;;;;2.13;0.60;;;14.90;54.60;;;;;;5088543;28;45303;-64
2023/03/25 03:54:26;;;;;;;1.50;0.55;;;14.90;54.60;;;;;;5088636;28;45372;-64
2023/03/25 03:56:53;;;;;;;0.57;0.50;;;14.90;54.60;;;;;;5088007;28;45328;-64
2023/03/25 03:59:23;;;;;;;0.52;0.52;;;14.80;54.50;;;;;;5088238;28;45266;-63
2023/03/25 04:01:52;;;;;;;0.88;0.70;;;14.90;54.60;;;;;;5088279;28;45242;-63
2023/03/25 04:04:20;;;;;;;0.38;0.38;;;14.80;54.50;;;;;;5088531;28;45171;-63
2023/03/25 04:06:49;;;;;;;0.95;0.60;;;14.80;54.50;;;;;;5088049;28;45466;-64
2023/03/25 04:09:26;;;;;;;0.30;0.30;;;14.80;54.50;;;;;;5088113;28;45298;-63
2023/03/25 04:11:54;;;;;;;0.95;0.40;;;14.80;54.50;;;;;;5088321;28;45254;-64
2023/03/25 04:14:21;;;;;;;0.80;0.60;;;14.80;54.50;;;;;;5088376;28;45325;-64
2023/03/25 04:16:47;;;;;;;1.67;0.90;;;14.80;54.50;;;;;;5087713;28;45542;-63
2023/03/25 04:19:17;;;;;;;0.60;0.45;;;14.80;54.50;;;;;;5087900;28;45333;-63
2023/03/25 04:21:44;;;;;;;1.08;0.63;;;14.80;54.50;;;;;;5088239;28;45202;-63
2023/03/25 04:24:10;;;;;;;0.80;0.60;;;14.70;54.50;;;;;;5087985;28;45313;-63
2023/03/25 04:26:37;;;;;;;0.32;0.32;;;14.80;54.50;;;;;;5087580;28;45320;-64
2023/03/25 04:29:04;;;;;;;0.93;0.50;;;14.70;54.50;;;;;;5087854;28;45537;-62
2023/03/25 04:31:31;;;;;;;0.55;0.50;;;14.70;54.50;;;;;;5087760;28;45253;-64
2023/03/25 04:33:58;;;;;;;1.02;0.60;;;14.70;54.50;;;;;;5088054;28;45296;-63
2023/03/25 04:36:27;;;;;;;0.98;0.60;;;14.70;54.50;;;;;;5087357;28;46692;-63
2023/03/25 04:38:54;;;;;;;0.82;0.80;;;14.70;54.50;;;;;;5087570;28;45401;-63
2023/03/25 04:41:21;;;;;;;1.35;0.50;;;14.70;54.60;;;;;;5087729;28;45244;-62
2023/03/25 04:43:48;;;;;;;1.48;0.60;;;14.70;54.50;;;;;;5087848;28;45450;-63
2023/03/25 04:46:15;;;;;;;0.35;0.32;;;14.70;54.50;;;;;;5087353;28;45317;-63
2023/03/25 04:48:44;;;;;;;1.27;0.50;;;14.70;54.50;;;;;;5087433;28;45344;-63
2023/03/25 04:51:11;;;;;;;0.25;0.25;;;14.70;54.50;;;;;;5087483;28;45387;-62
2023/03/25 04:53:39;;;;;;;0.77;0.63;;;14.70;54.50;;;;;;5087652;28;45440;-63
2023/03/25 04:56:11;;;;;;;0.82;0.60;;;14.60;54.50;;;;;;5087158;28;46410;-62
2023/03/25 04:58:39;;;;;;;0.65;0.60;;;14.60;54.60;;;;;;5087586;28;45308;-63
2023/03/25 05:01:10;;;;;;;0.98;0.55;;;14.60;54.50;;;;;;5087197;28;45344;-63
2023/03/25 05:03:38;;;;;;;0.55;0.50;;;14.60;54.60;;;;;;5087550;28;45356;-63
2023/03/25 05:06:06;;;;;;;0.32;0.32;;;14.60;54.60;;;;;;5087044;28;45283;-62
2023/03/25 05:08:33;;;;;;;0.50;0.38;;;14.60;54.60;;;;;;5087185;28;45356;-62
2023/03/25 05:11:02;;;;;;;0.65;0.50;;;14.60;54.60;;;;;;5087183;28;45383;-62
2023/03/25 05:13:28;;;;;;;2.30;0.40;;;14.60;54.60;;;;;;5087494;28;45179;-63
2023/03/25 05:15:55;;;;;;;2.00;0.40;;;14.60;54.60;;;;;;5086821;28;45473;-62
2023/03/25 05:18:22;;;;;;;0.95;0.45;;;14.60;54.60;;;;;;5086920;28;45364;-63
2023/03/25 05:20:50;;;;;;;0.40;0.40;;;14.60;54.50;;;;;;5087177;28;45383;-63
2023/03/25 05:23:17;;;;;;;1.08;0.50;;;14.60;54.60;;;;;;5087195;28;45359;-63
2023/03/25 05:25:44;;;;;;;0.45;0.38;;;14.50;54.50;;;;;;5085776;28;45461;-62
2023/03/25 05:28:13;;;;;;;0.70;0.35;;;14.50;54.50;;;;;;5086969;28;45317;-63
2023/03/25 05:30:40;;;;;;;1.48;0.40;;;14.60;54.50;;;;;;5086853;28;45316;-62
2023/03/25 05:33:09;;;;;;;0.30;0.30;;;14.50;55.10;;;;;;5087289;28;45323;-62
2023/03/25 05:35:36;;;;;;;0.40;0.40;;;14.50;54.50;;;;;;5086387;28;46390;-62
2023/03/25 05:38:03;;;;;;;0.30;0.30;;;14.50;54.50;;;;;;5086588;28;45333;-62
2023/03/25 05:40:30;;;;;;;0.40;0.40;;;14.50;54.50;;;;;;5086835;28;45498;-63
2023/03/25 05:42:57;;;;;;;0.20;0.20;;;14.50;54.50;;;;;;5086909;28;45296;-62
2023/03/25 05:45:25;;;;;;;0.30;0.25;;;14.50;55.10;;;;;;5086427;28;46392;-62
2023/03/25 05:47:53;;;;;;;1.70;0.68;;;14.50;54.50;;;;;;5086338;28;45320;-63
2023/03/25 05:50:20;;;;;;;0.40;0.40;;;14.50;54.60;;;;;;5086646;28;45403;-63
2023/03/25 05:52:48;;;;;;;0.30;0.30;;;14.50;54.50;;;;;;5086796;28;45257;-63
2023/03/25 05:55:16;;;;;;;0.65;0.50;;;14.50;54.50;;;;;;5086170;28;45788;-63
2023/03/25 05:57:43;;;;;;;0.45;0.40;;;14.50;54.50;;;;;;5086138;28;45321;-63
2023/03/25 06:00:11;;;;;;;0.65;0.40;;;14.50;54.60;;;;;;5086686;28;45365;-62
2023/03/25 06:02:41;;;;;;;0.40;0.40;;;14.50;54.60;;;;;;5086590;28;45607;-63
2023/03/25 06:05:12;;;;;;;0.38;0.38;;;14.50;54.50;;;;;;5086163;28;46739;-63
2023/03/25 06:07:41;;;;;;;1.10;0.40;;;14.50;54.60;;;;;;5086042;28;45386;-63
2023/03/25 06:10:08;;;;;;;0.68;0.40;;;14.50;54.60;;;;;;5086197;28;45368;-62
2023/03/25 06:12:37;;;;;;;0.38;0.38;;;14.50;54.50;;;;;;5085705;27;45312;-63
2023/03/25 06:15:05;;;;;;;0.65;0.40;;;14.50;54.50;;;;;;5085986;28;47133;-63
2023/03/25 06:17:33;;;;;;;0.95;0.30;;;14.50;54.50;;;;;;5085777;28;45324;-63
2023/03/25 06:20:09;;;;;;;0.50;0.40;;;14.50;54.70;;;;;;5086123;28;45358;-63
2023/03/25 06:22:37;;;;;;;0.20;0.20;;;14.50;54.50;;;;;;5086316;28;45597;-64
2023/03/25 06:25:05;;;;;;;0.30;0.30;;;14.50;54.50;;;;;;5085528;28;46680;-63
2023/03/25 06:27:33;;;;;;;0.70;0.30;;;14.50;54.50;;;;;;5085812;28;45346;-63
2023/03/25 06:30:00;;;;;;;0.40;0.40;;;14.50;54.40;;;;;;5086011;28;45348;-63
2023/03/25 06:32:27;;;;;;;0.47;0.30;;;14.40;54.50;;;;;;5086248;28;45472;-62
2023/03/25 06:34:54;;;;;;;0.70;0.50;;;14.50;54.50;;;;;;5085651;28;45332;-62
2023/03/25 06:37:25;;;;;;;0.40;0.40;;;14.40;54.50;;;;;;5085609;28;45304;-62
2023/03/25 06:39:55;;;;;;;0.57;0.40;;;14.40;54.40;;;;;;5086041;28;45340;-63
2023/03/25 06:42:22;;;;;;;0.43;0.43;;;14.50;54.50;;;;;;5085964;28;45594;-62
2023/03/25 06:44:49;;;;;;;0.30;0.30;;;14.50;54.50;;;;;;5085555;28;46722;-63
2023/03/25 06:47:16;;;;;;;1.02;0.40;;;14.50;54.50;;;;;;5085626;28;45314;-63
2023/03/25 06:49:42;;;;;;;0.55;0.40;;;14.40;54.40;;;;;;5085876;28;45273;-62
2023/03/25 06:52:10;;;;;;;0.50;0.32;;;14.40;54.40;;;;;;5085895;28;45389;-62
2023/03/25 06:54:39;;;;;;;0.40;0.40;;;14.40;54.50;;;;;;5085465;28;47010;-64
2023/03/25 06:57:05;;;;;;;1.15;0.25;;;14.40;54.40;;;;;;5085327;28;45380;-63
2023/03/25 06:59:32;;;;;;;0.38;0.30;;;14.40;54.50;;;;;;5085692;28;45333;-64
2023/03/25 07:01:59;;;;;;;1.25;0.43;;;14.40;54.50;;;;;;5085853;28;45470;-64
2023/03/25 07:04:26;;;;;;;0.60;0.55;;;14.50;54.50;;;;;;5085447;28;45551;-63
2023/03/25 07:06:53;;;;;;;0.32;0.32;;;14.50;54.40;;;;;;5085001;28;45391;-62
2023/03/25 07:09:20;;;;;;;1.08;0.40;;;14.40;54.40;;;;;;5085400;28;45325;-63
2023/03/25 07:11:48;;;;;;;1.10;0.30;;;14.40;54.50;;;;;;5084559;28;45518;-63
2023/03/25 07:14:15;;;;;;;0.45;0.28;;;14.40;54.40;;;;;;5085170;28;46608;-62
2023/03/25 07:16:42;;;;;;;0.20;0.20;;;14.40;54.40;;;;;;5081286;28;45519;-63
2023/03/25 07:19:08;;;;;;;0.88;0.32;;;14.40;54.40;;;;;;5085369;28;45292;-63
2023/03/25 07:21:35;;;;;;;0.60;0.38;;;14.40;54.40;;;;;;5084571;28;45487;-63
2023/03/25 07:24:02;;;;;;;0.50;0.50;;;14.50;54.40;;;;;;5085494;27;45466;-63
2023/03/25 07:26:29;;;;;;;0.50;0.20;;;14.50;54.40;;;;;;5087440;28;45293;-63
2023/03/25 07:28:57;;;;;;;0.45;0.10;;;14.40;54.40;;;;;;5088696;28;45324;-62
2023/03/25 07:31:24;;;;;;;2.25;0.40;;;14.50;54.40;;;;;;5085523;28;45474;-63
2023/03/25 07:33:51;;;;;;;0.55;0.40;;;14.50;54.50;;;;;;5087327;28;46492;-63
2023/03/25 07:36:18;;;;;;;0.30;0.30;;;14.50;54.40;;;;;;5077133;28;45387;-62
2023/03/25 07:38:45;;;;;;;0.20;0.20;;;14.40;55.00;;;;;;5088809;28;45468;-63
2023/03/25 07:41:12;;;;;;;0.45;0.43;;;14.40;54.40;;;;;;5088685;28;45536;-63
2023/03/25 07:43:39;;;;;;;0.22;0.22;;;14.50;54.40;;;;;;5087098;28;45372;-62
2023/03/25 07:46:07;;;;;;;0.50;0.50;;;14.50;55.00;;;;;;5086855;28;45362;-63
2023/03/25 07:48:35;;;;;;;0.50;0.50;;;14.50;54.30;;;;;;5087444;28;45334;-64
2023/03/25 07:51:02;;;;;;;0.65;0.30;;;14.50;54.30;;;;;;5087951;28;45594;-63
2023/03/25 07:53:29;;;;;;;0.35;0.35;;;14.50;54.30;;;;;;5086402;28;45379;-62
2023/03/25 07:55:55;;;;;;;0.47;0.30;;;14.50;54.30;;;;;;5088068;28;45375;-63
2023/03/25 07:58:22;;;;;;;0.30;0.30;;;14.50;54.30;;;;;;5085922;28;45356;-63
2023/03/25 08:00:49;;;;;;;0.68;0.40;;;14.50;54.20;;;;;;5088523;28;45261;-62
2023/03/25 08:03:17;;;;;;;0.30;0.30;;;14.50;54.20;;;;;;5086876;28;45456;-63
2023/03/25 08:05:46;;;;;;;1.00;0.32;;;14.50;54.20;;;;;;5085992;28;45387;-63
2023/03/25 08:08:12;;;;;;;1.13;0.35;;;14.50;54.30;;;;;;5088046;28;45332;-63
2023/03/25 08:10:41;;;;;;;0.70;0.50;;;14.50;54.30;;;;;;5086823;28;45399;-63
2023/03/25 08:13:08;;;;;;;0.38;0.25;;;14.40;54.30;;;;;;5085697;28;46449;-63
2023/03/25 08:15:35;;;;;;;1.05;0.40;;;14.50;54.20;;;;;;5082948;27;45452;-63
2023/03/25 08:18:04;;;;;;;0.38;0.30;;;14.50;54.20;;;;;;5086041;28;45391;-64
2023/03/25 08:20:32;;;;;;;1.10;0.40;;;14.50;54.40;;;;;;5088100;28;45418;-64
2023/03/25 08:22:59;;;;;;;0.68;0.40;;;14.50;54.40;;;;;;5087744;28;45570;-63
2023/03/25 08:25:26;;;;;;;0.60;0.30;;;14.50;54.10;;;;;;5087449;28;45425;-62
2023/03/25 08:27:53;;;;;;;0.68;0.40;;;14.50;54.10;;;;;;5088012;28;45303;-63
2023/03/25 08:30:21;;;;;;;7.30;0.45;;;14.50;54.10;;;;;;5088006;28;45346;-63
2023/03/25 08:32:53;;;;;;;2.85;0.50;;;14.60;54.10;;;;;;5087696;28;46724;-63
2023/03/25 08:35:20;;;;;;;2.55;0.40;;;14.60;54.10;;;;;;5087198;27;45207;-64
2023/03/25 08:37:48;;;;;;;2.47;0.50;;;14.60;54.20;;;;;;5087625;28;45384;-63
2023/03/25 08:40:16;;;;;;;5.07;0.40;;;14.60;54.40;;;;;;5087859;28;45354;-63
2023/03/25 08:42:43;;;;;;;0.75;0.43;;;14.60;54.30;;;;;;5087794;28;45267;-63
2023/03/25 08:45:11;;;;;;;0.50;0.50;;;14.70;54.80;;;;;;5087432;28;45273;-62
2023/03/25 08:47:38;;;;;;;4.47;0.75;;;14.70;55.10;;;;;;5087253;28;45492;-63
2023/03/25 08:50:05;;;;;;;2.17;0.40;;;14.70;54.90;;;;;;5087493;28;45295;-64
2023/03/25 08:52:32;;;;;;;2.20;0.47;;;14.70;54.80;;;;;;5087316;28;45432;-63
2023/03/25 08:55:00;;;;;;;2.25;0.50;;;14.70;54.80;;;;;;5087349;28;45220;-64
2023/03/25 08:57:27;;;;;;;4.15;0.70;;;14.70;54.80;;;;;;5087372;28;45250;-63
2023/03/25 08:59:54;;;;;;;4.78;0.45;;;14.70;55.00;;;;;;5087529;28;45380;-63
2023/03/25 09:02:21;;;;;;;0.57;0.43;;;14.70;54.80;;;;;;5087223;28;47711;-64
2023/03/25 09:04:48;;;;;;;1.75;0.50;;;14.70;54.80;;;;;;5087118;28;45468;-64
2023/03/25 09:07:18;;;;;;;0.43;0.43;;;14.70;55.00;;;;;;5087136;28;45368;-64
2023/03/25 09:09:45;;;;;;;1.13;0.43;;;14.70;55.10;;;;;;5087408;28;45335;-64
2023/03/25 09:12:13;;;;;;;0.95;0.20;;;14.70;55.00;;;;;;5086961;28;45475;-63
2023/03/25 09:14:40;;;;;;;0.85;0.30;;;14.70;54.80;;;;;;5086978;28;45335;-64
2023/03/25 09:17:08;;;;;;;2.35;0.43;;;14.70;54.80;;;;;;5086383;28;45325;-65
2023/03/25 09:19:36;;;;;;;0.55;0.20;;;14.70;54.80;;;;;;5087425;28;45642;-64
2023/03/25 09:22:03;;;;;;;3.00;0.50;;;14.70;55.00;;;;;;5086585;28;46632;-66
2023/03/25 09:24:32;;;;;;;3.20;0.45;;;14.70;55.00;;;;;;5086469;28;45234;-65
2023/03/25 09:26:59;;;;;;;2.50;0.45;;;14.70;55.30;;;;;;5086591;28;45375;-64
2023/03/25 09:29:28;;;;;;;0.57;0.30;;;14.70;55.50;;;;;;5086896;28;45336;-64
2023/03/25 09:31:57;;;;;;;2.53;0.55;;;14.80;55.80;;;;;;5086084;28;46683;-65
2023/03/25 09:34:23;;;;;;;0.30;0.20;;;14.80;55.20;;;;;;5086546;28;45372;-66
2023/03/25 09:36:50;;;;;;;0.22;0.17;;;14.80;55.30;;;;;;5086542;28;45313;-65
2023/03/25 09:39:17;;;;;;;3.30;0.38;;;14.80;55.10;;;;;;5086528;28;45267;-65
2023/03/25 09:41:57;;;;;;;1.85;0.40;;;14.80;55.20;;;;;;5086394;28;45171;-64
2023/03/25 09:44:27;;;;;;;6.00;0.35;;;14.80;55.20;;;;;;5086510;28;45315;-64
2023/03/25 09:46:54;;;;;;;2.20;0.40;;;14.80;55.00;;;;;;5085516;28;45257;-64
2023/03/25 09:49:22;;;;;;;1.02;0.38;;;14.80;55.00;;;;;;5086787;28;45286;-64
2023/03/25 09:51:49;;;;;;;6.63;0.60;;;14.90;55.00;;;;;;5086337;28;46595;-64
2023/03/25 09:54:20;;;;;;;0.93;0.40;;;14.90;55.30;;;;;;5086289;28;45337;-65
2023/03/25 09:56:46;;;;;;;1.58;0.40;;;14.90;55.20;;;;;;5086434;28;45296;-64
2023/03/25 09:59:14;;;;;;;0.45;0.30;;;14.90;55.10;;;;;;5086574;28;45316;-64
2023/03/25 10:01:45;;;;;;;4.78;0.50;;;14.90;55.30;;;;;;5086059;28;45441;-65
2023/03/25 10:04:27;;;;;;;0.32;0.30;;;14.90;55.20;;;;;;5086424;28;45276;-65
2023/03/25 10:06:57;;;;;;;0.30;0.30;;;14.90;55.00;;;;;;5086198;28;45195;-63
2023/03/25 10:09:31;;;;;;;2.45;0.28;;;15.00;55.80;;;;;;5086453;28;45416;-65
2023/03/25 10:12:00;;;;;;;0.77;0.45;;;15.00;55.00;;;;;;5085971;28;45557;-65
2023/03/25 10:14:27;;;;;;;0.57;0.35;;;15.00;55.20;;;;;;5086121;28;45249;-65
2023/03/25 10:17:02;;;;;;;5.78;0.47;;;15.10;56.20;;;;;;5085989;28;45304;-64
2023/03/25 10:19:36;;;;;;;2.30;0.60;;;15.10;55.60;;;;;;5080727;28;45515;-66
2023/03/25 10:22:03;;;;;;;1.05;0.40;;;15.10;55.70;;;;;;5081067;28;45426;-67
2023/03/25 10:24:32;;;;;;;2.70;0.45;;;15.20;56.00;;;;;;5083660;27;45151;-66
2023/03/25 10:27:00;;;;;;;7.30;0.60;;;15.30;56.00;;;;;;5078593;28;45425;-64
2023/03/25 10:29:30;;;;;;;0.90;0.50;;;15.30;56.40;;;;;;5073197;28;45340;-66
2023/03/25 10:32:00;;;;;;;5.20;0.30;;;15.30;56.50;;;;;;5085372;28;45803;-67
2023/03/25 10:34:31;;;;;;;2.88;0.40;;;15.40;56.80;;;;;;5080306;27;45410;-65
2023/03/25 10:36:59;;;;;;;3.20;0.55;;;15.50;56.90;;;;;;5082927;28;45319;-66
2023/03/25 10:39:32;;;;;;;10.80;0.50;;;15.50;56.70;;;;;;5077246;27;45421;-67
2023/03/25 10:42:01;;;;;;;1.80;0.60;;;15.50;56.40;;;;;;5077355;28;46649;-68
2023/03/25 10:44:28;;;;;;;5.38;0.70;;;15.50;56.30;;;;;;5067502;28;45312;-66
2023/03/25 10:46:57;;;;;;;1.42;0.43;;;15.60;56.20;;;;;;5083014;28;45123;-67
2023/03/25 10:49:27;;;;;;;2.92;0.60;;;15.60;56.00;;;;;;5084657;28;45500;-66
2023/03/25 10:51:56;;;;;;;7.45;0.77;;;15.60;56.00;;;;;;5085405;28;47458;-65
2023/03/25 10:54:24;;;;;;;2.78;0.60;;;15.70;56.10;;;;;;5085696;28;45194;-65
2023/03/25 10:56:51;;;;;;;2.45;0.63;;;15.80;55.90;;;;;;5085701;28;45246;-66
2023/03/25 10:59:22;;;;;;;5.15;0.65;;;15.90;55.80;;;;;;5088079;27;45463;-62
2023/03/25 11:01:49;;;;;;;7.10;0.60;;;15.90;55.70;;;;;;5089487;28;45315;-62
2023/03/25 11:04:17;;;;;;;4.55;0.63;;;16.00;55.80;;;;;;5089308;28;45428;-64
2023/03/25 11:06:47;;;;;;;0.75;0.30;;;16.00;55.70;;;;;;5089376;28;45235;-64
2023/03/25 11:09:16;;;;;;;0.75;0.43;;;16.00;55.70;;;;;;5089916;28;45183;-63
2023/03/25 11:11:43;;;;;;;1.45;0.38;;;16.00;55.90;;;;;;5089018;28;45515;-63
2023/03/25 11:14:10;;;;;;;1.23;0.47;;;16.00;55.50;;;;;;5089071;28;45192;-63
2023/03/25 11:16:41;;;;;;;2.40;0.43;;;16.10;55.20;;;;;;5089273;28;45178;-62
2023/03/25 11:19:15;;;;;;;3.05;0.57;;;16.10;54.90;;;;;;5088948;28;45360;-63
2023/03/25 11:21:47;;;;;;;4.15;0.40;;;16.20;55.10;;;;;;5088763;28;47314;-63
2023/03/25 11:24:14;;;;;;;1.33;0.50;;;16.20;54.30;;;;;;5088529;28;45360;-63
2023/03/25 11:26:41;;;;;;;1.00;0.60;;;16.20;54.20;;;;;;5088901;28;45241;-63
2023/03/25 11:29:09;;;;;;;1.58;0.43;;;16.30;54.50;;;;;;5088975;28;45303;-63
2023/03/25 11:31:36;;;;;;;2.28;0.50;;;16.40;54.30;;;;;;5088582;27;46386;-65
2023/03/25 11:34:05;;;;;;;3.78;0.50;;;16.50;54.40;;;;;;5096680;27;45243;-63
2023/03/25 11:36:32;;;;;;;4.03;1.67;;;16.50;54.20;;;;;;5107077;27;45264;-63
2023/03/25 11:39:03;;;;;;;3.60;0.82;;;16.50;53.80;;;;;;5109434;27;45312;-62
2023/03/25 11:41:31;;;;;;;2.45;0.55;;;16.50;54.40;;;;;;5095500;27;47016;-63
2023/03/25 11:43:58;;;;;;;0.80;0.52;;;16.50;54.10;;;;;;5105868;27;45283;-62
2023/03/25 11:46:24;;;;;;;4.57;0.73;;;16.60;53.90;;;;;;5084545;27;45151;-64
2023/03/25 11:48:51;;;;;;;3.08;0.77;;;16.60;53.70;;;;;;5072740;27;45186;-63
2023/03/25 11:51:20;;;;;;;4.95;0.52;;;16.60;53.90;;;;;;5088379;28;46686;-63
2023/03/25 11:53:48;;;;;;;0.80;0.50;;;16.50;54.00;;;;;;5088401;28;45423;-63
2023/03/25 11:56:21;;;;;;;1.73;0.85;;;16.50;54.10;;;;;;5088815;27;45206;-64
2023/03/25 11:58:47;;;;;;;1.38;0.75;;;16.50;54.20;;;;;;5088499;28;45459;-63
2023/03/25 12:01:22;;;;;;;3.78;0.80;;;16.50;54.50;;;;;;5088407;28;46685;-63
2023/03/25 12:03:49;;;;;;;0.63;0.60;;;16.50;54.60;;;;;;5088346;28;45286;-63
2023/03/25 12:06:17;;;;;;;5.68;0.90;;;16.50;54.50;;;;;;5088404;27;45226;-65
2023/03/25 12:08:48;;;;;;;1.13;0.73;;;16.40;54.30;;;;;;5085737;27;45494;-63
2023/03/25 12:11:18;;;;;;;2.17;0.77;;;16.50;54.50;;;;;;5087272;27;46388;-63
2023/03/25 12:13:55;;;;;;;1.92;0.80;;;16.50;54.50;;;;;;5088075;28;45259;-63
2023/03/25 12:16:27;;;;;;;3.05;0.60;;;16.50;54.40;;;;;;5088199;28;45378;-63
2023/03/25 12:19:00;;;;;;;3.13;1.15;;;16.60;54.40;;;;;;5091679;27;45743;-63
2023/03/25 12:21:35;;;;;;;1.65;0.65;;;16.60;54.30;;;;;;5091897;27;46416;-63
2023/03/25 12:24:09;;;;;;;1.65;0.70;;;16.60;54.10;;;;;;5087946;28;45150;-63
2023/03/25 12:26:40;;;;;;;1.30;0.70;;;16.70;54.30;;;;;;5088456;28;45257;-63
2023/03/25 12:29:17;;;;;;;1.88;0.60;;;16.80;53.90;;;;;;5088266;28;45333;-63
2023/03/25 12:31:51;;;;;;;2.13;0.70;;;17.00;53.50;;;;;;5087961;28;45272;-64
2023/03/25 12:34:22;;;;;;;1.02;0.52;;;17.10;52.70;;;;;;5087961;27;45226;-64
2023/03/25 12:36:54;;;;;;;0.40;0.40;;;17.20;52.50;;;;;;5087901;28;45181;-63
2023/03/25 12:39:34;;;;;;;2.78;0.55;;;17.30;52.30;;;;;;5087923;28;45337;-63
2023/03/25 12:42:07;;;;;;;1.48;0.60;;;17.40;52.20;;;;;;5087751;28;46447;-63
2023/03/25 12:44:42;;;;;;;2.55;0.50;;;17.40;51.90;;;;;;5087749;28;45258;-64
2023/03/25 12:47:14;;;;;;;1.33;0.52;;;17.40;52.10;;;;;;5097086;27;45325;-63
2023/03/25 12:50:15;;;;;;;1.38;0.70;;;17.50;51.90;;;;;;5108412;27;45131;-63
2023/03/25 12:52:43;;;;;;;1.75;0.77;;;17.60;51.40;;;;;;5024646;28;46672;-64
2023/03/25 12:55:29;;;;;;;1.98;0.70;;;17.70;51.10;;;;;;5090892;27;45178;-63
2023/03/25 12:58:07;;;;;;;0.73;0.70;;;17.70;51.60;;;;;;5108154;27;45142;-63